sensor_id;sensor_type;location;lat;lon;timestamp;temperature;humidity
9393;DHT22;4736;52.508;13.422;2023-01-24T00:01:28;2.20;1.00
9393;DHT22;4736;52.508;13.422;2023-01-24T00:04:31;2.10;1.00
9393;DHT22;4736;52.508;13.422;2023-01-24T00:07:34;2.00;1.00
9393;DHT22;4736;52.508;13.422;2023-01-24T00:10:37;2.00;1.00
9393;DHT22;4736;52.508;13.422;2023-01-24T00:13:41;2.30;1.00
9393;DHT22;4736;52.508;13.422;2023-01-24T00:16:45;2.20;1.00
9393;DHT22;4736;52.508;13.422;2023-01-24T00:19:48;1.90;1.00
9393;DHT22;4736;52.508;13.422;2023-01-24T00:22:51;1.80;1.00
9393;DHT22;4736;52.508;13.422;2023-01-24T00:25:54;2.00;1.00
9393;DHT22;4736;52.508;13.422;2023-01-24T00:28:57;2.20;1.00
9393;DHT22;4736;52.508;13.422;2023-01-24T00:32:02;1.80;1.00
9393;DHT22;4736;52.508;13.422;2023-01-24T00:35:07;2.20;1.00
9393;DHT22;4736;52.508;13.422;2023-01-24T00:38:10;2.20;1.00
9393;DHT22;4736;52.508;13.422;2023-01-24T00:41:13;1.80;1.00
9393;DHT22;4736;52.508;13.422;2023-01-24T00:44:16;1.80;1.00
9393;DHT22;4736;52.508;13.422;2023-01-24T00:47:21;2.00;1.00
9393;DHT22;4736;52.508;13.422;2023-01-24T00:50:24;1.90;1.00
9393;DHT22;4736;52.508;13.422;2023-01-24T00:53:27;2.10;1.00
9393;DHT22;4736;52.508;13.422;2023-01-24T00:56:30;1.80;1.00
9393;DHT22;4736;52.508;13.422;2023-01-24T00:59:33;2.00;1.00
9393;DHT22;4736;52.508;13.422;2023-01-24T01:02:37;1.80;1.00
9393;DHT22;4736;52.508;13.422;2023-01-24T01:05:41;1.70;1.00
9393;DHT22;4736;52.508;13.422;2023-01-24T01:08:44;1.80;1.00
9393;DHT22;4736;52.508;13.422;2023-01-24T01:11:47;1.80;1.00
9393;DHT22;4736;52.508;13.422;2023-01-24T01:14:50;1.80;1.00
9393;DHT22;4736;52.508;13.422;2023-01-24T01:17:55;1.70;1.00
9393;DHT22;4736;52.508;13.422;2023-01-24T01:20:59;1.70;1.00
9393;DHT22;4736;52.508;13.422;2023-01-24T01:24:02;1.80;1.00
9393;DHT22;4736;52.508;13.422;2023-01-24T01:27:05;1.60;1.00
9393;DHT22;4736;52.508;13.422;2023-01-24T01:30:09;1.50;1.00
9393;DHT22;4736;52.508;13.422;2023-01-24T01:33:14;1.70;1.00
9393;DHT22;4736;52.508;13.422;2023-01-24T01:36:17;1.60;1.00
9393;DHT22;4736;52.508;13.422;2023-01-24T01:39:20;1.50;1.00
9393;DHT22;4736;52.508;13.422;2023-01-24T01:42:23;1.80;1.00
9393;DHT22;4736;52.508;13.422;2023-01-24T01:45:39;1.60;1.00
9393;DHT22;4736;52.508;13.422;2023-01-24T01:48:45;1.70;1.00
9393;DHT22;4736;52.508;13.422;2023-01-24T01:51:51;1.70;1.00
9393;DHT22;4736;52.508;13.422;2023-01-24T01:54:59;1.60;1.00
9393;DHT22;4736;52.508;13.422;2023-01-24T01:58:04;1.60;1.00
9393;DHT22;4736;52.508;13.422;2023-01-24T02:01:07;1.50;1.00
9393;DHT22;4736;52.508;13.422;2023-01-24T02:04:16;1.50;1.00
9393;DHT22;4736;52.508;13.422;2023-01-24T02:07:22;1.80;1.00
9393;DHT22;4736;52.508;13.422;2023-01-24T02:10:27;1.60;1.00
9393;DHT22;4736;52.508;13.422;2023-01-24T02:13:51;1.80;1.00
9393;DHT22;4736;52.508;13.422;2023-01-24T02:17:16;1.40;1.00
9393;DHT22;4736;52.508;13.422;2023-01-24T02:20:29;1.60;1.00
9393;DHT22;4736;52.508;13.422;2023-01-24T02:23:41;1.40;1.00
9393;DHT22;4736;52.508;13.422;2023-01-24T02:26:47;1.30;1.00
9393;DHT22;4736;52.508;13.422;2023-01-24T02:29:50;1.40;1.00
9393;DHT22;4736;52.508;13.422;2023-01-24T02:32:53;1.40;1.00
9393;DHT22;4736;52.508;13.422;2023-01-24T02:36:16;1.50;1.00
9393;DHT22;4736;52.508;13.422;2023-01-24T02:39:24;1.40;1.00
9393;DHT22;4736;52.508;13.422;2023-01-24T02:42:33;1.30;1.00
9393;DHT22;4736;52.508;13.422;2023-01-24T02:45:36;1.10;1.00
9393;DHT22;4736;52.508;13.422;2023-01-24T02:48:39;1.70;1.00
9393;DHT22;4736;52.508;13.422;2023-01-24T02:51:42;1.30;1.00
9393;DHT22;4736;52.508;13.422;2023-01-24T02:54:59;1.40;1.00
9393;DHT22;4736;52.508;13.422;2023-01-24T02:58:03;1.30;1.00
9393;DHT22;4736;52.508;13.422;2023-01-24T03:01:08;1.50;1.00
9393;DHT22;4736;52.508;13.422;2023-01-24T03:04:12;1.30;1.00
9393;DHT22;4736;52.508;13.422;2023-01-24T03:07:15;1.30;1.00
9393;DHT22;4736;52.508;13.422;2023-01-24T03:10:19;1.30;1.00
9393;DHT22;4736;52.508;13.422;2023-01-24T03:13:24;1.50;1.00
9393;DHT22;4736;52.508;13.422;2023-01-24T03:16:45;1.40;1.00
9393;DHT22;4736;52.508;13.422;2023-01-24T03:20:06;1.50;1.00
9393;DHT22;4736;52.508;13.422;2023-01-24T03:23:26;1.50;1.00
9393;DHT22;4736;52.508;13.422;2023-01-24T03:26:47;1.30;1.00
9393;DHT22;4736;52.508;13.422;2023-01-24T03:30:10;1.30;1.00
9393;DHT22;4736;52.508;13.422;2023-01-24T03:33:31;1.40;1.00
9393;DHT22;4736;52.508;13.422;2023-01-24T03:36:51;1.40;1.00
9393;DHT22;4736;52.508;13.422;2023-01-24T03:39:54;1.40;1.00
9393;DHT22;4736;52.508;13.422;2023-01-24T03:43:00;1.20;1.00
9393;DHT22;4736;52.508;13.422;2023-01-24T03:46:05;1.20;1.00
9393;DHT22;4736;52.508;13.422;2023-01-24T03:49:08;1.10;1.00
9393;DHT22;4736;52.508;13.422;2023-01-24T03:52:11;1.20;1.00
9393;DHT22;4736;52.508;13.422;2023-01-24T03:55:29;1.30;1.00
9393;DHT22;4736;52.508;13.422;2023-01-24T03:58:32;1.40;1.00
9393;DHT22;4736;52.508;13.422;2023-01-24T04:01:36;1.40;1.00
9393;DHT22;4736;52.508;13.422;2023-01-24T04:04:40;1.20;1.00
9393;DHT22;4736;52.508;13.422;2023-01-24T04:08:00;1.30;1.00
9393;DHT22;4736;52.508;13.422;2023-01-24T04:11:04;1.40;1.00
9393;DHT22;4736;52.508;13.422;2023-01-24T04:14:07;1.20;1.00
9393;DHT22;4736;52.508;13.422;2023-01-24T04:17:11;1.30;1.00
9393;DHT22;4736;52.508;13.422;2023-01-24T04:20:15;1.20;1.00
9393;DHT22;4736;52.508;13.422;2023-01-24T04:23:18;1.20;1.00
9393;DHT22;4736;52.508;13.422;2023-01-24T04:26:21;1.30;1.00
9393;DHT22;4736;52.508;13.422;2023-01-24T04:29:24;1.40;1.00
9393;DHT22;4736;52.508;13.422;2023-01-24T04:32:29;1.30;1.00
9393;DHT22;4736;52.508;13.422;2023-01-24T04:35:32;1.50;1.00
9393;DHT22;4736;52.508;13.422;2023-01-24T04:38:36;1.30;1.00
9393;DHT22;4736;52.508;13.422;2023-01-24T04:41:39;1.30;1.00
9393;DHT22;4736;52.508;13.422;2023-01-24T04:44:42;1.50;1.00
9393;DHT22;4736;52.508;13.422;2023-01-24T04:47:47;1.20;1.00
9393;DHT22;4736;52.508;13.422;2023-01-24T04:50:50;1.20;1.00
9393;DHT22;4736;52.508;13.422;2023-01-24T04:53:53;1.10;1.00
9393;DHT22;4736;52.508;13.422;2023-01-24T04:56:56;1.20;1.00
9393;DHT22;4736;52.508;13.422;2023-01-24T04:59:59;1.30;1.00
9393;DHT22;4736;52.508;13.422;2023-01-24T05:03:04;1.20;1.00
9393;DHT22;4736;52.508;13.422;2023-01-24T05:06:07;1.10;1.00
9393;DHT22;4736;52.508;13.422;2023-01-24T05:09:10;1.30;1.00
9393;DHT22;4736;52.508;13.422;2023-01-24T05:12:13;1.20;1.00
9393;DHT22;4736;52.508;13.422;2023-01-24T05:15:16;1.20;1.00
9393;DHT22;4736;52.508;13.422;2023-01-24T05:18:23;1.20;1.00
9393;DHT22;4736;52.508;13.422;2023-01-24T05:21:26;1.30;1.00
9393;DHT22;4736;52.508;13.422;2023-01-24T05:24:29;1.00;1.00
9393;DHT22;4736;52.508;13.422;2023-01-24T05:27:32;1.30;1.00
9393;DHT22;4736;52.508;13.422;2023-01-24T05:30:35;1.20;1.00
9393;DHT22;4736;52.508;13.422;2023-01-24T05:33:40;1.40;1.00
9393;DHT22;4736;52.508;13.422;2023-01-24T05:36:43;1.40;1.00
9393;DHT22;4736;52.508;13.422;2023-01-24T05:39:46;1.20;1.00
9393;DHT22;4736;52.508;13.422;2023-01-24T05:42:49;1.30;1.00
9393;DHT22;4736;52.508;13.422;2023-01-24T05:45:57;1.20;1.00
9393;DHT22;4736;52.508;13.422;2023-01-24T05:49:01;1.30;1.00
9393;DHT22;4736;52.508;13.422;2023-01-24T05:52:04;1.20;1.00
9393;DHT22;4736;52.508;13.422;2023-01-24T05:55:08;1.20;1.00
9393;DHT22;4736;52.508;13.422;2023-01-24T05:58:11;1.00;1.00
9393;DHT22;4736;52.508;13.422;2023-01-24T06:01:16;1.20;1.00
9393;DHT22;4736;52.508;13.422;2023-01-24T06:04:20;1.20;1.00
9393;DHT22;4736;52.508;13.422;2023-01-24T06:07:23;1.10;1.00
9393;DHT22;4736;52.508;13.422;2023-01-24T06:10:26;1.20;1.00
9393;DHT22;4736;52.508;13.422;2023-01-24T06:13:30;1.10;1.00
9393;DHT22;4736;52.508;13.422;2023-01-24T06:16:33;1.20;1.00
9393;DHT22;4736;52.508;13.422;2023-01-24T06:19:38;1.20;1.00
9393;DHT22;4736;52.508;13.422;2023-01-24T06:22:45;1.10;1.00
9393;DHT22;4736;52.508;13.422;2023-01-24T06:25:53;1.20;1.00
9393;DHT22;4736;52.508;13.422;2023-01-24T06:28:57;1.20;1.00
9393;DHT22;4736;52.508;13.422;2023-01-24T06:32:09;1.10;1.00
9393;DHT22;4736;52.508;13.422;2023-01-24T06:35:27;1.40;1.00
9393;DHT22;4736;52.508;13.422;2023-01-24T06:38:31;1.20;1.00
9393;DHT22;4736;52.508;13.422;2023-01-24T06:41:35;1.10;1.00
9393;DHT22;4736;52.508;13.422;2023-01-24T06:44:39;1.40;1.00
9393;DHT22;4736;52.508;13.422;2023-01-24T06:47:42;1.10;1.00
9393;DHT22;4736;52.508;13.422;2023-01-24T06:50:47;1.10;1.00
9393;DHT22;4736;52.508;13.422;2023-01-24T06:53:50;1.00;1.00
9393;DHT22;4736;52.508;13.422;2023-01-24T06:56:53;1.10;1.00
9393;DHT22;4736;52.508;13.422;2023-01-24T06:59:56;1.10;1.00
9393;DHT22;4736;52.508;13.422;2023-01-24T07:02:59;1.20;1.00
9393;DHT22;4736;52.508;13.422;2023-01-24T07:06:04;1.10;1.00
9393;DHT22;4736;52.508;13.422;2023-01-24T07:09:07;1.10;1.00
9393;DHT22;4736;52.508;13.422;2023-01-24T07:12:11;1.30;1.00
9393;DHT22;4736;52.508;13.422;2023-01-24T07:15:14;1.10;1.00
9393;DHT22;4736;52.508;13.422;2023-01-24T07:18:18;1.30;1.00
9393;DHT22;4736;52.508;13.422;2023-01-24T07:21:23;1.10;1.00
9393;DHT22;4736;52.508;13.422;2023-01-24T07:24:28;1.20;1.00
9393;DHT22;4736;52.508;13.422;2023-01-24T07:27:32;1.20;1.00
9393;DHT22;4736;52.508;13.422;2023-01-24T07:30:35;1.20;1.00
9393;DHT22;4736;52.508;13.422;2023-01-24T07:33:38;1.20;1.00
9393;DHT22;4736;52.508;13.422;2023-01-24T07:36:48;1.10;1.00
9393;DHT22;4736;52.508;13.422;2023-01-24T07:39:51;1.20;1.00
9393;DHT22;4736;52.508;13.422;2023-01-24T07:42:54;1.20;1.00
9393;DHT22;4736;52.508;13.422;2023-01-24T07:45:57;1.40;1.00
9393;DHT22;4736;52.508;13.422;2023-01-24T07:49:00;1.20;1.00
9393;DHT22;4736;52.508;13.422;2023-01-24T07:52:06;1.20;1.00
9393;DHT22;4736;52.508;13.422;2023-01-24T07:55:09;1.40;1.00
9393;DHT22;4736;52.508;13.422;2023-01-24T07:58:12;1.30;1.00
9393;DHT22;4736;52.508;13.422;2023-01-24T08:01:16;1.10;1.00
9393;DHT22;4736;52.508;13.422;2023-01-24T08:04:20;1.40;1.00
9393;DHT22;4736;52.508;13.422;2023-01-24T08:07:24;1.30;1.00
9393;DHT22;4736;52.508;13.422;2023-01-24T08:10:28;1.30;1.00
9393;DHT22;4736;52.508;13.422;2023-01-24T08:13:31;1.50;1.00
9393;DHT22;4736;52.508;13.422;2023-01-24T08:16:34;1.50;1.00
9393;DHT22;4736;52.508;13.422;2023-01-24T08:19:37;1.40;1.00
9393;DHT22;4736;52.508;13.422;2023-01-24T08:22:58;1.40;1.00
9393;DHT22;4736;52.508;13.422;2023-01-24T08:26:02;1.60;1.00
9393;DHT22;4736;52.508;13.422;2023-01-24T08:29:07;1.50;1.00
9393;DHT22;4736;52.508;13.422;2023-01-24T08:32:10;1.60;1.00
9393;DHT22;4736;52.508;13.422;2023-01-24T08:35:13;1.60;1.00
9393;DHT22;4736;52.508;13.422;2023-01-24T08:38:18;1.60;1.00
9393;DHT22;4736;52.508;13.422;2023-01-24T08:41:21;1.80;1.00
9393;DHT22;4736;52.508;13.422;2023-01-24T08:44:24;1.90;1.00
9393;DHT22;4736;52.508;13.422;2023-01-24T08:47:27;1.80;1.00
9393;DHT22;4736;52.508;13.422;2023-01-24T08:50:30;1.70;1.00
9393;DHT22;4736;52.508;13.422;2023-01-24T08:53:34;1.60;1.00
9393;DHT22;4736;52.508;13.422;2023-01-24T08:56:37;1.70;1.00
9393;DHT22;4736;52.508;13.422;2023-01-24T08:59:41;2.00;1.00
9393;DHT22;4736;52.508;13.422;2023-01-24T09:02:44;1.80;1.00
9393;DHT22;4736;52.508;13.422;2023-01-24T09:05:47;1.80;1.00
9393;DHT22;4736;52.508;13.422;2023-01-24T09:08:53;1.70;1.00
9393;DHT22;4736;52.508;13.422;2023-01-24T09:11:56;1.80;1.00
9393;DHT22;4736;52.508;13.422;2023-01-24T09:14:59;1.80;1.00
9393;DHT22;4736;52.508;13.422;2023-01-24T09:18:03;1.80;1.00
9393;DHT22;4736;52.508;13.422;2023-01-24T09:21:06;1.80;1.00
9393;DHT22;4736;52.508;13.422;2023-01-24T09:24:10;1.90;1.00
9393;DHT22;4736;52.508;13.422;2023-01-24T09:27:13;2.20;1.00
9393;DHT22;4736;52.508;13.422;2023-01-24T09:30:17;2.10;1.00
9393;DHT22;4736;52.508;13.422;2023-01-24T09:33:22;2.00;1.00
9393;DHT22;4736;52.508;13.422;2023-01-24T09:36:25;2.00;1.00
9393;DHT22;4736;52.508;13.422;2023-01-24T09:39:30;2.00;1.00
9393;DHT22;4736;52.508;13.422;2023-01-24T09:42:37;2.20;1.00
9393;DHT22;4736;52.508;13.422;2023-01-24T09:45:49;2.30;1.00
9393;DHT22;4736;52.508;13.422;2023-01-24T09:49:00;2.40;1.00
9393;DHT22;4736;52.508;13.422;2023-01-24T09:52:09;2.40;1.00
9393;DHT22;4736;52.508;13.422;2023-01-24T09:55:19;2.50;1.00
9393;DHT22;4736;52.508;13.422;2023-01-24T09:58:29;2.30;1.00
9393;DHT22;4736;52.508;13.422;2023-01-24T10:01:33;2.40;1.00
9393;DHT22;4736;52.508;13.422;2023-01-24T10:04:36;2.50;1.00
9393;DHT22;4736;52.508;13.422;2023-01-24T10:08:14;2.50;1.00
9393;DHT22;4736;52.508;13.422;2023-01-24T10:11:27;2.40;1.00
9393;DHT22;4736;52.508;13.422;2023-01-24T10:14:43;2.60;1.00
9393;DHT22;4736;52.508;13.422;2023-01-24T10:18:02;2.30;1.00
9393;DHT22;4736;52.508;13.422;2023-01-24T10:21:26;2.50;1.00
9393;DHT22;4736;52.508;13.422;2023-01-24T10:24:37;2.70;1.00
9393;DHT22;4736;52.508;13.422;2023-01-24T10:27:45;2.60;1.00
9393;DHT22;4736;52.508;13.422;2023-01-24T10:30:53;2.50;1.00
9393;DHT22;4736;52.508;13.422;2023-01-24T10:34:00;2.90;1.00
9393;DHT22;4736;52.508;13.422;2023-01-24T10:37:17;2.90;1.00
9393;DHT22;4736;52.508;13.422;2023-01-24T10:40:23;2.90;1.00
9393;DHT22;4736;52.508;13.422;2023-01-24T10:43:31;3.10;1.00
9393;DHT22;4736;52.508;13.422;2023-01-24T10:46:49;3.10;1.00
9393;DHT22;4736;52.508;13.422;2023-01-24T10:49:59;3.10;1.00
9393;DHT22;4736;52.508;13.422;2023-01-24T10:53:12;3.20;1.00
9393;DHT22;4736;52.508;13.422;2023-01-24T10:56:28;3.20;1.00
9393;DHT22;4736;52.508;13.422;2023-01-24T10:59:34;3.30;1.00
9393;DHT22;4736;52.508;13.422;2023-01-24T11:02:37;3.00;1.00
9393;DHT22;4736;52.508;13.422;2023-01-24T11:05:44;3.00;1.00
9393;DHT22;4736;52.508;13.422;2023-01-24T11:08:53;3.00;1.00
9393;DHT22;4736;52.508;13.422;2023-01-24T11:11:58;3.10;1.00
9393;DHT22;4736;52.508;13.422;2023-01-24T11:15:03;3.10;1.00
9393;DHT22;4736;52.508;13.422;2023-01-24T11:18:16;3.20;1.00
9393;DHT22;4736;52.508;13.422;2023-01-24T11:21:20;3.20;1.00
9393;DHT22;4736;52.508;13.422;2023-01-24T11:24:23;3.30;1.00
9393;DHT22;4736;52.508;13.422;2023-01-24T11:27:27;3.10;1.00
9393;DHT22;4736;52.508;13.422;2023-01-24T11:30:37;3.10;1.00
9393;DHT22;4736;52.508;13.422;2023-01-24T11:33:54;3.10;1.00
9393;DHT22;4736;52.508;13.422;2023-01-24T11:37:11;3.30;1.00
9393;DHT22;4736;52.508;13.422;2023-01-24T11:40:29;3.30;1.00
9393;DHT22;4736;52.508;13.422;2023-01-24T11:43:49;3.30;1.00
9393;DHT22;4736;52.508;13.422;2023-01-24T11:47:01;3.20;1.00
9393;DHT22;4736;52.508;13.422;2023-01-24T11:50:27;3.50;1.00
9393;DHT22;4736;52.508;13.422;2023-01-24T11:53:54;3.30;1.00
9393;DHT22;4736;52.508;13.422;2023-01-24T11:57:02;3.20;1.00
9393;DHT22;4736;52.508;13.422;2023-01-24T12:00:21;3.20;1.00
9393;DHT22;4736;52.508;13.422;2023-01-24T12:03:56;3.20;1.00
9393;DHT22;4736;52.508;13.422;2023-01-24T12:07:04;3.00;1.00
9393;DHT22;4736;52.508;13.422;2023-01-24T12:10:17;3.10;1.00
9393;DHT22;4736;52.508;13.422;2023-01-24T12:13:32;3.20;1.00
9393;DHT22;4736;52.508;13.422;2023-01-24T12:16:47;3.30;1.00
9393;DHT22;4736;52.508;13.422;2023-01-24T12:20:06;3.50;1.00
9393;DHT22;4736;52.508;13.422;2023-01-24T12:23:38;3.20;1.00
9393;DHT22;4736;52.508;13.422;2023-01-24T12:26:45;3.30;1.00
9393;DHT22;4736;52.508;13.422;2023-01-24T12:29:55;3.10;1.00
9393;DHT22;4736;52.508;13.422;2023-01-24T12:33:03;3.10;1.00
9393;DHT22;4736;52.508;13.422;2023-01-24T12:36:13;3.20;1.00
9393;DHT22;4736;52.508;13.422;2023-01-24T12:39:20;3.30;1.00
9393;DHT22;4736;52.508;13.422;2023-01-24T12:42:33;3.10;1.00
9393;DHT22;4736;52.508;13.422;2023-01-24T12:45:42;3.10;1.00
9393;DHT22;4736;52.508;13.422;2023-01-24T12:48:50;3.20;1.00
9393;DHT22;4736;52.508;13.422;2023-01-24T12:52:00;3.40;1.00
9393;DHT22;4736;52.508;13.422;2023-01-24T12:55:12;3.30;1.00
9393;DHT22;4736;52.508;13.422;2023-01-24T12:58:21;3.10;1.00
9393;DHT22;4736;52.508;13.422;2023-01-24T13:01:36;3.10;1.00
9393;DHT22;4736;52.508;13.422;2023-01-24T13:04:47;3.10;1.00
9393;DHT22;4736;52.508;13.422;2023-01-24T13:08:07;3.20;1.00
9393;DHT22;4736;52.508;13.422;2023-01-24T13:11:19;2.90;1.00
9393;DHT22;4736;52.508;13.422;2023-01-24T13:14:25;3.20;1.00
9393;DHT22;4736;52.508;13.422;2023-01-24T13:17:56;3.20;1.00
9393;DHT22;4736;52.508;13.422;2023-01-24T13:21:07;3.20;1.00
9393;DHT22;4736;52.508;13.422;2023-01-24T13:24:26;3.40;1.00
9393;DHT22;4736;52.508;13.422;2023-01-24T13:27:39;3.40;1.00
9393;DHT22;4736;52.508;13.422;2023-01-24T13:30:47;3.30;1.00
9393;DHT22;4736;52.508;13.422;2023-01-24T13:33:54;3.30;1.00
9393;DHT22;4736;52.508;13.422;2023-01-24T13:36:59;3.40;1.00
9393;DHT22;4736;52.508;13.422;2023-01-24T13:40:06;3.30;1.00
9393;DHT22;4736;52.508;13.422;2023-01-24T13:43:55;3.40;1.00
9393;DHT22;4736;52.508;13.422;2023-01-24T13:47:01;3.10;1.00
9393;DHT22;4736;52.508;13.422;2023-01-24T13:50:18;3.30;1.00
9393;DHT22;4736;52.508;13.422;2023-01-24T13:53:56;3.30;1.00
9393;DHT22;4736;52.508;13.422;2023-01-24T13:57:23;3.40;1.00
9393;DHT22;4736;52.508;13.422;2023-01-24T14:00:27;2.90;1.00
9393;DHT22;4736;52.508;13.422;2023-01-24T14:03:33;2.90;1.00
9393;DHT22;4736;52.508;13.422;2023-01-24T14:06:41;3.00;1.00
9393;DHT22;4736;52.508;13.422;2023-01-24T14:09:45;2.90;1.00
9393;DHT22;4736;52.508;13.422;2023-01-24T14:12:54;3.20;1.00
9393;DHT22;4736;52.508;13.422;2023-01-24T14:15:57;3.10;1.00
9393;DHT22;4736;52.508;13.422;2023-01-24T14:19:08;3.20;1.00
9393;DHT22;4736;52.508;13.422;2023-01-24T14:22:22;3.00;1.00
9393;DHT22;4736;52.508;13.422;2023-01-24T14:25:34;3.00;1.00
9393;DHT22;4736;52.508;13.422;2023-01-24T14:28:47;3.20;1.00
9393;DHT22;4736;52.508;13.422;2023-01-24T14:31:54;3.00;1.00
9393;DHT22;4736;52.508;13.422;2023-01-24T14:35:18;3.10;1.00
9393;DHT22;4736;52.508;13.422;2023-01-24T14:38:21;3.10;1.00
9393;DHT22;4736;52.508;13.422;2023-01-24T14:41:24;3.00;1.00
9393;DHT22;4736;52.508;13.422;2023-01-24T14:44:31;3.00;1.00
9393;DHT22;4736;52.508;13.422;2023-01-24T14:47:35;2.90;1.00
9393;DHT22;4736;52.508;13.422;2023-01-24T14:50:38;3.10;1.00
9393;DHT22;4736;52.508;13.422;2023-01-24T14:53:46;2.90;1.00
9393;DHT22;4736;52.508;13.422;2023-01-24T14:56:49;2.90;1.00
9393;DHT22;4736;52.508;13.422;2023-01-24T15:00:06;3.00;1.00
9393;DHT22;4736;52.508;13.422;2023-01-24T15:03:16;3.10;1.00
9393;DHT22;4736;52.508;13.422;2023-01-24T15:06:20;2.90;1.00
9393;DHT22;4736;52.508;13.422;2023-01-24T15:09:24;3.00;1.00
9393;DHT22;4736;52.508;13.422;2023-01-24T15:12:30;2.90;1.00
9393;DHT22;4736;52.508;13.422;2023-01-24T15:15:36;2.70;1.00
9393;DHT22;4736;52.508;13.422;2023-01-24T15:18:43;2.70;1.00
9393;DHT22;4736;52.508;13.422;2023-01-24T15:21:49;2.50;1.00
9393;DHT22;4736;52.508;13.422;2023-01-24T15:24:53;2.70;1.00
9393;DHT22;4736;52.508;13.422;2023-01-24T15:28:09;2.70;1.00
9393;DHT22;4736;52.508;13.422;2023-01-24T15:31:19;2.50;1.00
9393;DHT22;4736;52.508;13.422;2023-01-24T15:34:23;2.50;1.00
9393;DHT22;4736;52.508;13.422;2023-01-24T15:37:26;2.70;1.00
9393;DHT22;4736;52.508;13.422;2023-01-24T15:40:29;2.60;1.00
9393;DHT22;4736;52.508;13.422;2023-01-24T15:43:35;2.40;1.00
9393;DHT22;4736;52.508;13.422;2023-01-24T15:46:55;2.40;1.00
9393;DHT22;4736;52.508;13.422;2023-01-24T15:50:27;2.60;1.00
9393;DHT22;4736;52.508;13.422;2023-01-24T15:53:48;2.80;1.00
9393;DHT22;4736;52.508;13.422;2023-01-24T15:56:51;2.80;1.00
9393;DHT22;4736;52.508;13.422;2023-01-24T16:00:18;2.80;1.00
9393;DHT22;4736;52.508;13.422;2023-01-24T16:03:25;2.60;1.00
9393;DHT22;4736;52.508;13.422;2023-01-24T16:06:28;2.70;1.00
9393;DHT22;4736;52.508;13.422;2023-01-24T16:09:32;2.50;1.00
9393;DHT22;4736;52.508;13.422;2023-01-24T16:12:35;2.70;1.00
9393;DHT22;4736;52.508;13.422;2023-01-24T16:15:39;2.40;1.00
9393;DHT22;4736;52.508;13.422;2023-01-24T16:18:43;2.40;1.00
9393;DHT22;4736;52.508;13.422;2023-01-24T16:21:46;2.70;1.00
9393;DHT22;4736;52.508;13.422;2023-01-24T16:24:50;2.70;1.00
9393;DHT22;4736;52.508;13.422;2023-01-24T16:27:53;2.60;1.00
9393;DHT22;4736;52.508;13.422;2023-01-24T16:31:00;2.50;1.00
9393;DHT22;4736;52.508;13.422;2023-01-24T16:34:05;2.60;1.00
9393;DHT22;4736;52.508;13.422;2023-01-24T16:37:09;2.50;1.00
9393;DHT22;4736;52.508;13.422;2023-01-24T16:40:14;2.50;1.00
9393;DHT22;4736;52.508;13.422;2023-01-24T16:43:19;2.60;1.00
9393;DHT22;4736;52.508;13.422;2023-01-24T16:46:23;2.40;1.00
9393;DHT22;4736;52.508;13.422;2023-01-24T16:49:27;2.30;1.00
9393;DHT22;4736;52.508;13.422;2023-01-24T16:52:31;2.50;1.00
9393;DHT22;4736;52.508;13.422;2023-01-24T16:55:35;2.70;1.00
9393;DHT22;4736;52.508;13.422;2023-01-24T16:58:39;2.50;1.00
9393;DHT22;4736;52.508;13.422;2023-01-24T17:01:42;2.70;1.00
9393;DHT22;4736;52.508;13.422;2023-01-24T17:04:48;2.60;1.00
9393;DHT22;4736;52.508;13.422;2023-01-24T17:07:51;2.50;1.00
9393;DHT22;4736;52.508;13.422;2023-01-24T17:11:01;2.70;1.00
9393;DHT22;4736;52.508;13.422;2023-01-24T17:14:05;2.50;1.00
9393;DHT22;4736;52.508;13.422;2023-01-24T17:17:08;2.70;1.00
9393;DHT22;4736;52.508;13.422;2023-01-24T17:20:13;2.50;1.00
9393;DHT22;4736;52.508;13.422;2023-01-24T17:23:16;2.80;1.00
9393;DHT22;4736;52.508;13.422;2023-01-24T17:26:19;2.30;1.00
9393;DHT22;4736;52.508;13.422;2023-01-24T17:29:22;2.70;1.00
9393;DHT22;4736;52.508;13.422;2023-01-24T17:32:30;2.60;1.00
9393;DHT22;4736;52.508;13.422;2023-01-24T17:35:36;2.30;1.00
9393;DHT22;4736;52.508;13.422;2023-01-24T17:38:41;2.30;1.00
9393;DHT22;4736;52.508;13.422;2023-01-24T17:41:45;2.50;1.00
9393;DHT22;4736;52.508;13.422;2023-01-24T17:44:48;2.40;1.00
9393;DHT22;4736;52.508;13.422;2023-01-24T17:47:51;2.60;1.00
9393;DHT22;4736;52.508;13.422;2023-01-24T17:50:56;2.50;1.00
9393;DHT22;4736;52.508;13.422;2023-01-24T17:54:00;2.40;1.00
9393;DHT22;4736;52.508;13.422;2023-01-24T17:57:03;2.70;1.00
9393;DHT22;4736;52.508;13.422;2023-01-24T18:00:07;2.60;1.00
9393;DHT22;4736;52.508;13.422;2023-01-24T18:03:11;2.50;1.00
9393;DHT22;4736;52.508;13.422;2023-01-24T18:06:15;2.40;1.00
9393;DHT22;4736;52.508;13.422;2023-01-24T18:09:19;2.30;1.00
9393;DHT22;4736;52.508;13.422;2023-01-24T18:12:23;2.40;1.00
9393;DHT22;4736;52.508;13.422;2023-01-24T18:15:26;2.60;1.00
9393;DHT22;4736;52.508;13.422;2023-01-24T18:18:29;2.50;1.00
9393;DHT22;4736;52.508;13.422;2023-01-24T18:21:33;2.60;1.00
9393;DHT22;4736;52.508;13.422;2023-01-24T18:24:36;2.40;1.00
9393;DHT22;4736;52.508;13.422;2023-01-24T18:27:40;2.40;1.00
9393;DHT22;4736;52.508;13.422;2023-01-24T18:30:43;2.70;1.00
9393;DHT22;4736;52.508;13.422;2023-01-24T18:33:46;2.50;1.00
9393;DHT22;4736;52.508;13.422;2023-01-24T18:36:51;2.60;1.00
9393;DHT22;4736;52.508;13.422;2023-01-24T18:39:54;2.50;1.00
9393;DHT22;4736;52.508;13.422;2023-01-24T18:42:57;2.70;1.00
9393;DHT22;4736;52.508;13.422;2023-01-24T18:46:04;2.40;1.00
9393;DHT22;4736;52.508;13.422;2023-01-24T18:49:08;2.40;1.00
9393;DHT22;4736;52.508;13.422;2023-01-24T18:52:13;2.30;1.00
9393;DHT22;4736;52.508;13.422;2023-01-24T18:55:16;2.50;1.00
9393;DHT22;4736;52.508;13.422;2023-01-24T18:58:19;2.80;1.00
9393;DHT22;4736;52.508;13.422;2023-01-24T19:01:24;2.40;1.00
9393;DHT22;4736;52.508;13.422;2023-01-24T19:04:28;2.60;1.00
9393;DHT22;4736;52.508;13.422;2023-01-24T19:07:32;2.50;1.00
9393;DHT22;4736;52.508;13.422;2023-01-24T19:10:40;2.50;1.00
9393;DHT22;4736;52.508;13.422;2023-01-24T19:13:43;2.70;1.00
9393;DHT22;4736;52.508;13.422;2023-01-24T19:16:46;2.40;1.00
9393;DHT22;4736;52.508;13.422;2023-01-24T19:19:49;2.70;1.00
9393;DHT22;4736;52.508;13.422;2023-01-24T19:22:55;2.50;1.00
9393;DHT22;4736;52.508;13.422;2023-01-24T19:25:58;2.70;1.00
9393;DHT22;4736;52.508;13.422;2023-01-24T19:29:02;2.50;1.00
9393;DHT22;4736;52.508;13.422;2023-01-24T19:32:05;2.30;1.00
9393;DHT22;4736;52.508;13.422;2023-01-24T19:35:08;2.40;1.00
9393;DHT22;4736;52.508;13.422;2023-01-24T19:38:13;2.70;1.00
9393;DHT22;4736;52.508;13.422;2023-01-24T19:41:16;2.50;1.00
9393;DHT22;4736;52.508;13.422;2023-01-24T19:44:19;2.40;1.00
9393;DHT22;4736;52.508;13.422;2023-01-24T19:47:23;2.70;1.00
9393;DHT22;4736;52.508;13.422;2023-01-24T19:50:26;2.80;1.00
9393;DHT22;4736;52.508;13.422;2023-01-24T19:53:31;2.60;1.00
9393;DHT22;4736;52.508;13.422;2023-01-24T19:56:34;2.50;1.00
9393;DHT22;4736;52.508;13.422;2023-01-24T19:59:38;2.50;1.00
9393;DHT22;4736;52.508;13.422;2023-01-24T20:02:43;2.60;1.00
9393;DHT22;4736;52.508;13.422;2023-01-24T20:05:46;2.60;1.00
9393;DHT22;4736;52.508;13.422;2023-01-24T20:08:52;2.70;1.00
9393;DHT22;4736;52.508;13.422;2023-01-24T20:11:55;2.60;1.00
9393;DHT22;4736;52.508;13.422;2023-01-24T20:14:58;2.50;1.00
9393;DHT22;4736;52.508;13.422;2023-01-24T20:18:01;2.40;1.00
9393;DHT22;4736;52.508;13.422;2023-01-24T20:21:05;2.50;1.00
9393;DHT22;4736;52.508;13.422;2023-01-24T20:24:13;2.40;1.00
9393;DHT22;4736;52.508;13.422;2023-01-24T20:27:16;2.70;1.00
9393;DHT22;4736;52.508;13.422;2023-01-24T20:30:19;2.70;1.00
9393;DHT22;4736;52.508;13.422;2023-01-24T20:33:23;2.50;1.00
9393;DHT22;4736;52.508;13.422;2023-01-24T20:36:26;2.70;1.00
9393;DHT22;4736;52.508;13.422;2023-01-24T20:39:30;2.50;1.00